createdAt,value
2018-08-31T00:02:36.158Z,90.60
2018-08-31T00:05:46.901Z,90.60
2018-08-31T00:10:29.003Z,90.70
2018-08-31T00:12:58.053Z,90.80
2018-08-31T00:15:27.473Z,90.80
2018-08-31T00:17:56.426Z,90.80
2018-08-31T00:20:25.999Z,90.90
2018-08-31T00:22:55.033Z,90.90
2018-08-31T00:26:06.991Z,91.00
2018-08-31T00:28:48.083Z,90.90
2018-08-31T00:33:38.485Z,90.70
2018-08-31T00:36:22.733Z,90.80
2018-08-31T00:39:23.448Z,91.00
2018-08-31T00:42:05.493Z,91.10
2018-08-31T00:44:45.900Z,91.20
2018-08-31T00:47:14.817Z,91.20
2018-08-31T00:49:43.934Z,91.30
2018-08-31T00:52:12.876Z,91.30
2018-08-31T00:54:41.829Z,91.30
2018-08-31T00:57:10.790Z,91.40
2018-08-31T00:59:39.712Z,91.40
2018-08-31T01:02:09.073Z,91.40
2018-08-31T01:04:38.011Z,91.40
2018-08-31T01:07:06.934Z,91.60
2018-08-31T01:09:35.963Z,91.40
2018-08-31T01:12:05.253Z,91.40
2018-08-31T01:14:34.487Z,91.50
2018-08-31T01:17:03.626Z,91.50
2018-08-31T01:19:32.638Z,91.50
2018-08-31T01:22:01.589Z,91.60
2018-08-31T01:24:30.536Z,91.60
2018-08-31T01:26:59.512Z,91.70
2018-08-31T01:29:28.484Z,91.70
2018-08-31T01:31:57.767Z,91.80
2018-08-31T01:34:26.737Z,91.80
2018-08-31T01:36:55.789Z,91.70
2018-08-31T01:39:25.091Z,91.70
2018-08-31T01:41:54.472Z,91.70
2018-08-31T01:44:23.434Z,91.70
2018-08-31T01:46:52.470Z,91.60
2018-08-31T01:49:21.389Z,91.60
2018-08-31T01:51:50.311Z,91.50
2018-08-31T01:54:19.311Z,91.40
2018-08-31T01:56:48.315Z,91.40
2018-08-31T01:59:17.275Z,91.20
2018-08-31T02:01:46.881Z,91.10
2018-08-31T02:04:15.886Z,91.00
2018-08-31T02:06:45.108Z,91.00
2018-08-31T02:09:19.312Z,91.00
2018-08-31T02:11:49.263Z,91.00
2018-08-31T02:14:18.243Z,91.00
2018-08-31T02:16:47.411Z,91.10
2018-08-31T02:19:16.675Z,91.10
2018-08-31T02:21:45.780Z,91.10
2018-08-31T02:24:15.087Z,91.10
2018-08-31T02:26:44.116Z,91.10
2018-08-31T02:29:13.055Z,91.10
2018-08-31T02:31:41.998Z,91.10
2018-08-31T02:34:10.954Z,91.20
2018-08-31T02:36:39.886Z,91.20
2018-08-31T02:39:08.860Z,91.30
2018-08-31T02:41:38.021Z,91.30
2018-08-31T02:44:07.338Z,91.40
2018-08-31T02:46:36.287Z,91.40
2018-08-31T02:49:05.428Z,91.40
2018-08-31T02:51:34.428Z,91.40
2018-08-31T02:54:03.682Z,91.50
2018-08-31T02:56:32.682Z,91.50
2018-08-31T02:59:01.758Z,91.60
2018-08-31T03:01:30.696Z,91.60
2018-08-31T03:03:59.670Z,91.60
2018-08-31T03:06:28.949Z,91.60
2018-08-31T03:08:57.906Z,91.60
2018-08-31T03:11:26.887Z,91.60
2018-08-31T03:13:56.089Z,91.60
2018-08-31T03:16:25.136Z,91.60
2018-08-31T03:18:54.044Z,91.60
2018-08-31T03:21:23.090Z,91.60
2018-08-31T03:23:52.154Z,91.60
2018-08-31T03:26:21.150Z,91.60
2018-08-31T03:28:50.204Z,91.60
2018-08-31T03:31:19.416Z,91.60
2018-08-31T03:33:48.348Z,91.50
2018-08-31T03:36:17.290Z,91.60
2018-08-31T03:38:46.236Z,91.60
2018-08-31T03:41:15.189Z,91.90
2018-08-31T03:43:44.174Z,91.60
2018-08-31T03:46:13.136Z,91.60
2018-08-31T03:48:42.049Z,91.60
2018-08-31T03:51:10.998Z,91.60
2018-08-31T03:53:39.960Z,91.80
2018-08-31T03:56:08.910Z,91.60
2018-08-31T03:58:37.884Z,91.90
2018-08-31T04:01:07.194Z,91.50
2018-08-31T04:03:36.119Z,91.50
2018-08-31T04:06:05.298Z,91.50
2018-08-31T04:08:34.303Z,91.60
2018-08-31T04:11:03.294Z,91.50
2018-08-31T04:13:32.272Z,91.90
2018-08-31T04:16:01.255Z,91.60
2018-08-31T04:18:30.303Z,91.60
2018-08-31T04:20:59.299Z,91.60
2018-08-31T04:23:28.263Z,91.60
2018-08-31T04:25:57.195Z,91.70
2018-08-31T04:28:26.161Z,91.70
2018-08-31T04:30:55.087Z,91.60
2018-08-31T04:33:24.287Z,91.60
2018-08-31T04:35:53.225Z,92.00
2018-08-31T04:38:22.375Z,91.60
2018-08-31T04:40:51.421Z,91.60
2018-08-31T04:43:20.476Z,91.60
2018-08-31T04:45:49.445Z,91.60
2018-08-31T04:48:18.497Z,91.50
2018-08-31T04:50:47.502Z,91.40
2018-08-31T04:53:16.445Z,91.40
2018-08-31T04:55:45.594Z,91.40
2018-08-31T04:58:14.684Z,91.30
2018-08-31T05:00:43.738Z,91.20
2018-08-31T05:03:12.732Z,91.10
2018-08-31T05:05:41.749Z,91.00
2018-08-31T05:08:11.234Z,90.90
2018-08-31T05:10:40.334Z,90.90
2018-08-31T05:13:09.300Z,90.80
2018-08-31T05:15:38.360Z,90.70
2018-08-31T05:18:07.346Z,90.60
2018-08-31T05:20:36.544Z,90.60
2018-08-31T05:23:05.929Z,90.50
2018-08-31T05:25:35.413Z,90.50
2018-08-31T05:28:04.910Z,90.40
2018-08-31T05:30:33.922Z,90.40
2018-08-31T05:33:03.030Z,90.30
2018-08-31T05:35:31.962Z,90.20
2018-08-31T05:38:01.062Z,90.20
2018-08-31T05:40:29.990Z,90.20
2018-08-31T05:42:59.073Z,90.10
2018-08-31T05:45:28.185Z,90.10
2018-08-31T05:47:57.191Z,90.00
2018-08-31T05:50:26.388Z,89.90
2018-08-31T05:52:55.341Z,89.80
2018-08-31T05:55:24.616Z,89.50
2018-08-31T05:57:53.571Z,89.30
2018-08-31T06:00:22.590Z,89.00
2018-08-31T06:02:51.545Z,88.60
2018-08-31T06:05:20.471Z,88.30
2018-08-31T06:07:49.579Z,88.00
2018-08-31T06:10:18.559Z,87.60
2018-08-31T06:12:47.655Z,87.10
2018-08-31T06:15:16.870Z,87.00
2018-08-31T06:17:45.861Z,87.00
2018-08-31T06:20:14.809Z,86.90
2018-08-31T06:22:43.891Z,86.70
2018-08-31T06:25:13.010Z,86.40
2018-08-31T06:27:42.031Z,86.20
2018-08-31T06:30:11.114Z,86.80
2018-08-31T06:32:40.177Z,85.60
2018-08-31T06:35:09.645Z,85.30
2018-08-31T06:37:38.847Z,85.10
2018-08-31T06:40:08.003Z,85.10
2018-08-31T06:42:37.086Z,85.00
2018-08-31T06:45:06.397Z,84.70
2018-08-31T06:47:35.433Z,84.60
2018-08-31T06:50:04.552Z,84.60
2018-08-31T06:52:33.548Z,84.50
2018-08-31T06:55:02.512Z,84.30
2018-08-31T06:57:31.673Z,84.10
2018-08-31T07:00:01.229Z,84.30
2018-08-31T07:02:30.183Z,84.00
2018-08-31T07:04:59.389Z,83.80
2018-08-31T07:07:28.425Z,83.50
2018-08-31T07:09:57.461Z,83.30
2018-08-31T07:12:26.528Z,83.10
2018-08-31T07:14:55.618Z,83.40
2018-08-31T07:17:24.544Z,83.10
2018-08-31T07:19:53.983Z,83.20
2018-08-31T07:22:23.168Z,83.30
2018-08-31T07:24:52.151Z,83.50
2018-08-31T07:27:21.222Z,83.10
2018-08-31T07:29:50.224Z,83.10
2018-08-31T07:32:19.371Z,83.00
2018-08-31T07:34:48.474Z,82.70
2018-08-31T07:37:17.514Z,82.50
2018-08-31T07:39:46.601Z,82.40
2018-08-31T07:42:15.645Z,82.30
2018-08-31T07:44:44.749Z,81.70
2018-08-31T07:47:13.768Z,81.50
2018-08-31T07:49:42.857Z,81.30
2018-08-31T07:52:11.835Z,80.60
2018-08-31T07:54:40.871Z,80.10
2018-08-31T07:57:09.851Z,79.40
2018-08-31T07:59:38.813Z,78.80
2018-08-31T08:02:07.830Z,77.80
2018-08-31T08:04:36.793Z,77.00
2018-08-31T08:07:06.402Z,76.00
2018-08-31T08:09:35.374Z,75.40
2018-08-31T08:12:04.405Z,74.40
2018-08-31T08:14:33.440Z,74.00
2018-08-31T08:17:02.948Z,74.40
2018-08-31T08:19:31.966Z,73.40
2018-08-31T08:22:01.536Z,73.00
2018-08-31T08:24:30.509Z,72.70
2018-08-31T08:26:59.613Z,72.50
2018-08-31T08:29:28.621Z,72.20
2018-08-31T08:31:57.568Z,71.60
2018-08-31T08:34:26.513Z,71.40
2018-08-31T08:36:55.825Z,70.70
2018-08-31T08:39:25.242Z,70.10
2018-08-31T08:41:54.218Z,70.00
2018-08-31T08:44:23.806Z,69.50
2018-08-31T08:46:53.108Z,69.30
2018-08-31T08:49:22.050Z,69.20
2018-08-31T08:51:51.120Z,69.00
2018-08-31T08:54:20.096Z,68.70
2018-08-31T08:56:49.160Z,68.90
2018-08-31T08:59:18.226Z,68.40
2018-08-31T09:01:47.466Z,68.40
2018-08-31T09:04:16.496Z,68.40
2018-08-31T09:06:45.579Z,68.40
2018-08-31T09:09:14.690Z,68.40
2018-08-31T09:11:43.693Z,67.10
2018-08-31T09:14:12.963Z,66.90
2018-08-31T09:16:42.066Z,66.50
2018-08-31T09:19:11.098Z,66.40
2018-08-31T09:21:40.136Z,66.20
2018-08-31T09:24:09.105Z,65.60
2018-08-31T09:26:38.031Z,64.80
2018-08-31T09:29:06.990Z,64.30
2018-08-31T09:31:35.987Z,64.30
2018-08-31T09:34:05.377Z,64.30
2018-08-31T09:36:34.326Z,63.90
2018-08-31T09:39:04.417Z,64.30
2018-08-31T09:41:33.378Z,63.70
2018-08-31T09:44:02.766Z,63.30
2018-08-31T09:46:31.883Z,62.70
2018-08-31T09:49:01.146Z,62.40
2018-08-31T09:51:30.099Z,62.40
2018-08-31T09:53:59.172Z,62.70
2018-08-31T09:56:28.184Z,63.30
2018-08-31T09:58:57.339Z,63.20
2018-08-31T10:01:31.784Z,63.20
2018-08-31T10:04:01.914Z,62.70
2018-08-31T10:06:32.877Z,61.90
2018-08-31T10:09:01.919Z,61.60
2018-08-31T10:11:30.972Z,60.90
2018-08-31T10:13:59.923Z,61.00
2018-08-31T10:16:28.997Z,61.40
2018-08-31T10:18:57.943Z,61.80
2018-08-31T10:21:27.128Z,62.00
2018-08-31T10:23:56.054Z,61.70
2018-08-31T10:26:25.093Z,61.50
2018-08-31T10:28:54.073Z,61.20
2018-08-31T10:31:23.104Z,61.10
2018-08-31T10:33:52.193Z,60.20
2018-08-31T10:36:21.361Z,60.00
2018-08-31T10:38:50.854Z,59.70
2018-08-31T10:41:19.863Z,59.50
2018-08-31T10:43:48.816Z,59.40
2018-08-31T10:46:17.774Z,58.90
2018-08-31T10:48:46.831Z,58.60
2018-08-31T10:51:15.755Z,58.20
2018-08-31T10:53:44.819Z,58.40
2018-08-31T10:56:13.913Z,58.40
2018-08-31T10:58:43.253Z,58.20
2018-08-31T11:01:12.208Z,58.00
2018-08-31T11:03:41.462Z,57.80
2018-08-31T11:06:10.562Z,57.60
2018-08-31T11:08:39.651Z,57.40
2018-08-31T11:11:08.799Z,57.20
2018-08-31T11:13:38.301Z,56.70
2018-08-31T11:16:07.637Z,56.60
2018-08-31T11:18:36.662Z,56.70
2018-08-31T11:21:05.716Z,56.60
2018-08-31T11:23:34.966Z,56.60
2018-08-31T11:26:04.720Z,56.70
2018-08-31T11:28:33.718Z,56.70
2018-08-31T11:31:02.785Z,56.40
2018-08-31T11:33:32.008Z,56.20
2018-08-31T11:36:00.978Z,56.70
2018-08-31T11:38:30.066Z,56.40
2018-08-31T11:40:59.170Z,55.70
2018-08-31T11:43:28.177Z,55.40
2018-08-31T11:45:57.379Z,55.00
2018-08-31T11:48:26.517Z,55.60
2018-08-31T11:50:56.198Z,55.00
2018-08-31T11:53:25.157Z,54.90
2018-08-31T11:55:54.378Z,54.90
2018-08-31T11:58:23.603Z,54.60
2018-08-31T12:00:52.640Z,54.60
2018-08-31T12:03:21.617Z,54.20
2018-08-31T12:05:50.780Z,54.20
2018-08-31T12:08:19.959Z,53.90
2018-08-31T12:10:48.949Z,53.80
2018-08-31T12:13:18.191Z,54.20
2018-08-31T12:15:47.228Z,53.40
2018-08-31T12:18:16.212Z,53.00
2018-08-31T12:20:45.161Z,52.50
2018-08-31T12:23:14.351Z,52.60
2018-08-31T12:25:43.301Z,52.80
2018-08-31T12:28:12.237Z,52.80
2018-08-31T12:30:41.186Z,52.50
2018-08-31T12:33:10.470Z,52.20
2018-08-31T12:35:39.662Z,52.00
2018-08-31T12:38:08.757Z,51.90
2018-08-31T12:40:37.807Z,51.80
2018-08-31T12:43:06.744Z,51.70
2018-08-31T12:45:35.749Z,51.70
2018-08-31T12:48:04.855Z,51.50
2018-08-31T12:50:33.807Z,51.10
2018-08-31T12:53:02.809Z,50.80
2018-08-31T12:55:31.776Z,50.60
2018-08-31T12:58:01.064Z,50.40
2018-08-31T13:00:30.142Z,50.20
2018-08-31T13:02:59.002Z,50.10
2018-08-31T13:05:29.706Z,50.20
2018-08-31T13:07:58.920Z,49.90
2018-08-31T13:10:28.176Z,50.20
2018-08-31T13:12:57.306Z,49.40
2018-08-31T13:15:26.427Z,49.00
2018-08-31T13:17:55.917Z,49.00
2018-08-31T13:20:24.942Z,48.70
2018-08-31T13:22:53.895Z,48.40
2018-08-31T13:25:23.425Z,48.40
2018-08-31T13:27:52.190Z,47.50
2018-08-31T13:30:21.032Z,47.60
2018-08-31T13:32:49.902Z,47.50
2018-08-31T13:35:18.786Z,47.40
2018-08-31T13:37:47.594Z,47.40
2018-08-31T13:40:16.714Z,47.40
2018-08-31T13:42:45.557Z,46.90
2018-08-31T13:45:14.734Z,46.70
2018-08-31T13:47:43.774Z,46.50
2018-08-31T13:50:12.938Z,46.50
2018-08-31T13:52:42.029Z,46.40
2018-08-31T13:55:11.345Z,46.60
2018-08-31T13:57:40.323Z,46.60
2018-08-31T14:00:09.223Z,46.40
2018-08-31T14:02:38.253Z,46.20
2018-08-31T14:05:07.083Z,46.40
2018-08-31T14:07:35.926Z,45.10
2018-08-31T14:10:05.019Z,44.60
2018-08-31T14:12:34.175Z,44.60
2018-08-31T14:15:03.120Z,44.00
2018-08-31T14:17:31.809Z,43.70
2018-08-31T14:20:00.577Z,43.50
2018-08-31T14:22:29.271Z,43.40
2018-08-31T14:24:58.129Z,43.70
2018-08-31T14:27:27.119Z,43.40
2018-08-31T14:29:56.013Z,43.40
2018-08-31T14:32:24.754Z,43.40
2018-08-31T14:34:53.487Z,43.10
2018-08-31T14:37:22.655Z,42.70
2018-08-31T14:39:51.308Z,42.60
2018-08-31T14:42:19.981Z,42.80
2018-08-31T14:44:48.740Z,42.90
2018-08-31T14:47:17.396Z,42.80
2018-08-31T14:49:46.518Z,43.20
2018-08-31T14:52:15.661Z,43.20
2018-08-31T14:54:44.324Z,43.00
2018-08-31T14:57:13.016Z,42.60
2018-08-31T14:59:41.742Z,42.30
2018-08-31T15:02:10.382Z,42.50
2018-08-31T15:04:39.066Z,43.30
2018-08-31T15:07:07.843Z,42.60
2018-08-31T15:09:36.778Z,42.50
2018-08-31T15:12:05.602Z,42.60
2018-08-31T15:14:34.306Z,42.50
2018-08-31T15:17:03.048Z,42.40
2018-08-31T15:19:31.773Z,42.60
2018-08-31T15:22:00.511Z,42.50
2018-08-31T15:24:29.212Z,43.20
2018-08-31T15:26:58.040Z,42.60
2018-08-31T15:29:26.886Z,42.60
2018-08-31T15:31:55.540Z,42.80
2018-08-31T15:34:24.300Z,42.80
2018-08-31T15:36:53.035Z,42.90
2018-08-31T15:39:21.811Z,42.90
2018-08-31T15:41:50.505Z,42.90
2018-08-31T15:44:19.326Z,42.90
2018-08-31T15:46:48.140Z,43.00
2018-08-31T15:49:16.962Z,43.00
2018-08-31T15:51:45.851Z,43.50
2018-08-31T15:54:14.609Z,43.30
2018-08-31T15:56:43.258Z,43.40
2018-08-31T15:59:11.974Z,43.60
2018-08-31T16:01:40.668Z,43.60
2018-08-31T16:04:09.498Z,43.70
2018-08-31T16:06:38.148Z,43.80
2018-08-31T16:09:08.511Z,43.70
2018-08-31T16:11:37.264Z,43.90
2018-08-31T16:14:05.918Z,43.90
2018-08-31T16:16:34.646Z,43.80
2018-08-31T16:19:03.703Z,43.90
2018-08-31T16:21:32.813Z,43.80
2018-08-31T16:24:01.803Z,43.90
2018-08-31T16:26:30.505Z,44.00
2018-08-31T16:28:59.210Z,44.20
2018-08-31T16:31:28.521Z,44.40
2018-08-31T16:33:57.222Z,44.50
2018-08-31T16:36:26.230Z,44.60
2018-08-31T16:38:55.673Z,44.80
2018-08-31T16:41:24.919Z,44.90
2018-08-31T16:43:53.861Z,44.90
2018-08-31T16:46:22.815Z,45.00
2018-08-31T16:48:51.976Z,45.10
2018-08-31T16:51:21.281Z,45.30
2018-08-31T16:53:50.363Z,45.40
2018-08-31T16:56:19.353Z,45.60
2018-08-31T16:58:48.371Z,45.80
2018-08-31T17:01:17.583Z,46.00
2018-08-31T17:03:46.854Z,46.20
2018-08-31T17:06:15.913Z,46.40
2018-08-31T17:08:44.878Z,46.50
2018-08-31T17:11:13.834Z,46.60
2018-08-31T17:13:42.994Z,46.80
2018-08-31T17:16:11.985Z,47.00
2018-08-31T17:18:41.040Z,47.00
2018-08-31T17:21:10.076Z,47.10
2018-08-31T17:23:39.080Z,47.20
2018-08-31T17:26:12.474Z,47.20
2018-08-31T17:28:46.868Z,47.10
2018-08-31T17:31:21.698Z,47.10
2018-08-31T17:33:56.092Z,47.10
2018-08-31T17:36:30.810Z,47.10
2018-08-31T17:39:00.110Z,47.30
2018-08-31T17:41:29.566Z,47.30
2018-08-31T17:43:58.826Z,47.50
2018-08-31T17:46:27.883Z,47.60
2018-08-31T17:48:58.825Z,47.80
2018-08-31T17:51:28.048Z,47.90
2018-08-31T17:53:57.024Z,48.00
2018-08-31T17:56:26.126Z,48.00
2018-08-31T17:58:55.363Z,48.20
2018-08-31T18:01:24.340Z,48.30
2018-08-31T18:03:53.295Z,48.40
2018-08-31T18:06:22.318Z,48.60
2018-08-31T18:08:51.276Z,48.80
2018-08-31T18:11:20.376Z,48.90
2018-08-31T18:13:49.481Z,49.00
2018-08-31T18:16:18.553Z,49.20
2018-08-31T18:18:47.663Z,49.20
2018-08-31T18:21:16.744Z,49.50
2018-08-31T18:23:45.693Z,49.70
2018-08-31T18:26:14.637Z,49.90
2018-08-31T18:28:43.633Z,50.10
2018-08-31T18:31:12.645Z,50.30
2018-08-31T18:33:41.621Z,50.50
2018-08-31T18:36:10.548Z,50.80
2018-08-31T18:38:39.523Z,51.00
2018-08-31T18:41:09.183Z,51.20
2018-08-31T18:43:38.310Z,51.40
2018-08-31T18:46:07.287Z,51.60
2018-08-31T18:48:36.274Z,51.80
2018-08-31T18:51:05.414Z,52.00
2018-08-31T18:53:34.520Z,52.20
2018-08-31T18:56:03.831Z,52.40
2018-08-31T18:58:32.792Z,52.60
2018-08-31T19:01:01.952Z,52.90
2018-08-31T19:03:30.904Z,53.10
2018-08-31T19:05:59.995Z,53.10
2018-08-31T19:08:29.134Z,53.30
2018-08-31T19:10:58.069Z,53.60
2018-08-31T19:13:27.045Z,53.90
2018-08-31T19:15:56.521Z,54.10
2018-08-31T19:18:25.490Z,54.40
2018-08-31T19:20:54.631Z,54.60
2018-08-31T19:23:23.726Z,54.80
2018-08-31T19:25:52.670Z,55.10
2018-08-31T19:28:22.092Z,55.20
2018-08-31T19:30:51.260Z,55.40
2018-08-31T19:33:20.238Z,55.60
2018-08-31T19:35:49.284Z,56.50
2018-08-31T19:38:18.404Z,56.10
2018-08-31T19:40:47.496Z,56.40
2018-08-31T19:43:16.562Z,56.70
2018-08-31T19:45:45.501Z,57.30
2018-08-31T19:48:14.468Z,56.90
2018-08-31T19:50:43.391Z,57.10
2018-08-31T19:53:12.452Z,57.30
2018-08-31T19:55:41.460Z,57.60
2018-08-31T19:58:10.458Z,57.80
2018-08-31T20:00:39.512Z,58.20
2018-08-31T20:03:08.991Z,58.40
2018-08-31T20:05:38.489Z,58.60
2018-08-31T20:08:07.468Z,58.70
2018-08-31T20:10:36.495Z,59.00
2018-08-31T20:13:05.480Z,59.20
2018-08-31T20:15:34.484Z,59.40
2018-08-31T20:18:03.470Z,59.70
2018-08-31T20:20:32.457Z,59.80
2018-08-31T20:23:01.463Z,60.10
2018-08-31T20:25:30.403Z,60.40
2018-08-31T20:27:59.519Z,60.60
2018-08-31T20:30:28.581Z,60.90
2018-08-31T20:32:58.281Z,61.10
2018-08-31T20:35:27.551Z,61.60
2018-08-31T20:37:56.886Z,61.70
2018-08-31T20:40:26.154Z,61.80
2018-08-31T20:42:55.094Z,62.10
2018-08-31T20:45:24.029Z,62.30
2018-08-31T20:47:53.007Z,62.60
2018-08-31T20:50:21.944Z,62.80
2018-08-31T20:52:51.079Z,63.00
2018-08-31T20:55:20.085Z,63.00
2018-08-31T20:57:49.015Z,63.10
2018-08-31T21:00:18.124Z,63.30
2018-08-31T21:02:47.179Z,63.40
2018-08-31T21:05:16.124Z,63.40
2018-08-31T21:07:45.096Z,63.50
2018-08-31T21:10:14.243Z,63.50
2018-08-31T21:12:43.225Z,63.40
2018-08-31T21:15:12.338Z,63.40
2018-08-31T21:17:41.292Z,63.50
2018-08-31T21:20:10.320Z,63.60
2018-08-31T21:22:39.300Z,63.70
2018-08-31T21:25:08.306Z,64.60
2018-08-31T21:27:37.550Z,64.00
2018-08-31T21:30:06.907Z,64.30
2018-08-31T21:32:35.974Z,64.50
2018-08-31T21:35:05.374Z,64.60
2018-08-31T21:37:34.361Z,64.80
2018-08-31T21:40:03.649Z,65.00
2018-08-31T21:42:32.606Z,64.60
2018-08-31T21:45:01.880Z,64.50
2018-08-31T21:47:31.261Z,65.30
2018-08-31T21:50:00.274Z,64.60
2018-08-31T21:52:29.276Z,64.80
2018-08-31T21:54:58.244Z,64.50
2018-08-31T21:57:27.207Z,64.50
2018-08-31T21:59:56.153Z,64.50
2018-08-31T22:02:25.259Z,64.40
2018-08-31T22:04:54.236Z,64.50
2018-08-31T22:07:23.292Z,64.50
2018-08-31T22:09:52.336Z,64.60
2018-08-31T22:12:21.384Z,64.70
2018-08-31T22:14:50.306Z,64.80
2018-08-31T22:17:19.364Z,64.80
2018-08-31T22:19:48.404Z,64.90
2018-08-31T22:22:17.354Z,65.00
2018-08-31T22:24:46.400Z,65.00
2018-08-31T22:27:15.554Z,64.90
2018-08-31T22:29:44.620Z,64.80
2018-08-31T22:32:13.783Z,64.70
2018-08-31T22:34:42.721Z,64.70
2018-08-31T22:37:11.634Z,64.70
2018-08-31T22:39:40.647Z,64.70
2018-08-31T22:42:09.594Z,64.80
2018-08-31T22:44:38.742Z,64.80
2018-08-31T22:47:07.743Z,64.70
2018-08-31T22:49:36.736Z,65.60
2018-08-31T22:52:05.911Z,65.00
2018-08-31T22:54:34.854Z,65.00
2018-08-31T22:57:03.862Z,65.20
2018-08-31T22:59:32.900Z,65.20
2018-08-31T23:02:02.184Z,65.40
2018-08-31T23:04:31.106Z,65.50
2018-08-31T23:07:00.282Z,65.60
2018-08-31T23:09:29.640Z,65.70
2018-08-31T23:11:58.644Z,65.80
2018-08-31T23:14:27.592Z,65.90
2018-08-31T23:16:56.557Z,66.00
2018-08-31T23:19:25.577Z,66.20
2018-08-31T23:21:54.517Z,66.40
2018-08-31T23:24:23.456Z,66.50
2018-08-31T23:26:52.412Z,66.60
2018-08-31T23:29:21.373Z,66.70
2018-08-31T23:31:50.292Z,66.70
2018-08-31T23:34:19.488Z,66.80
2018-08-31T23:36:48.686Z,66.80
2018-08-31T23:39:17.685Z,66.90
2018-08-31T23:41:46.811Z,66.90
2018-08-31T23:44:15.747Z,67.00
2018-08-31T23:46:44.715Z,67.00
2018-08-31T23:49:13.714Z,67.20
2018-08-31T23:51:42.682Z,67.20
2018-08-31T23:54:11.645Z,67.40
2018-08-31T23:56:40.624Z,67.50
2018-08-31T23:59:09.572Z,67.60
